x

Hi-a389 Tabs V (42047) Weather Station

2:00pm - Sat 4th Jul 2015 All times are CDT. -5 hours from GMT.

  • Wind
    16mph, 18mph gusts
  • Sea Temp 86°f
  • Sea Pressure 1017.2mb
  • Hi-a389 Tabs V
  • Hi-a389 Tabs V

More Historic Weather Station data

Upgrade to MSW Pro to gain access to the past 30 days of data for over 8000 Wavebouys and Weather Stations around the globe.

Join Pro

Comparision Forecast

View Surf forecast
   
Sat 07/04 2:00pm 16 18 mph 1017.2mb 86f
1:00pm 16 18 mph 1017.6mb 85f
12:00pm 13 16 mph 1017.9mb 85f
11:00am 13 16 mph 1017.8mb 85f
10:00am 9 11 mph 1017.8mb 85f
9:00am 9 11 mph 1017.7mb 85f
8:00am 7 9 mph 1017.2mb 85f
7:00am 13 20 mph 1017.2mb 85f
6:00am 13 16 mph 1016.6mb 85f
5:00am 11 16 mph 1016.1mb 85f
4:00am 13 16 mph 1016mb 85f
1:00am 11 13 mph 1016.5mb 85f
12:00am 13 18 mph 1016.4mb 84f
Fri 07/03 11:00pm 13 18 mph 1016.5mb 85f
6:00pm 13 16 mph 1015.5mb 85f
5:00pm 11 13 mph 1015.7mb 85f
4:00pm 13 16 mph 1016mb 85f
3:00pm 13 16 mph 1016.5mb 85f
1:00pm 13 16 mph 1017.3mb 85f
11:00am 9 11 mph 1017.2mb 85f
10:00am 9 11 mph 1016.7mb 85f
9:00am 7 9 mph 1017.1mb 85f
7:00am 7
mph
1016.5mb 84f
6:00am 9
mph
1016.6mb 84f
5:00am 11 13 mph 1016.4mb 84f
4:00am 13 16 mph 1016.1mb 84f
3:00am 13 16 mph 1016.2mb 84f
2:00am 13 18 mph 1016.3mb 84f
1:00am 16 20 mph 1016mb 84f
12:00am 13 18 mph 1016mb 84f
Thu 07/02 11:00pm 16 18 mph 1016mb 84f
6:00pm 13 16 mph 1016.4mb 85f
5:00pm 13 16 mph 1016.7mb 84f
4:00pm 13 16 mph 1016.9mb 84f
3:00pm 16 18 mph 1017.1mb 84f
2:00pm 18 20 mph 1017.1mb 84f
1:00pm 13 16 mph 1017.9mb 84f
11:00am 13 16 mph 1018.6mb 84f
9:00am 13 16 mph 1018.3mb 84f
8:00am 11 16 mph 1018mb 84f
7:00am 11 13 mph 1017.8mb 84f
6:00am 9 11 mph 1017.6mb 84f
5:00am 9 11 mph 1017mb 84f
4:00am 11 13 mph 1016.7mb 84f
3:00am 11 16 mph 1016.6mb 84f
2:00am 9 11 mph 1017.2mb 84f
1:00am 9 11 mph 1018.2mb 84f
12:00am 7 9 mph 1018.8mb 84f
Wed 07/01 6:00pm 13 16 mph 1017.3mb 84f
5:00pm 13 16 mph 1017.3mb 84f
4:00pm 16 18 mph 1017.2mb 84f
3:00pm 18 20 mph 1017.4mb 84f
2:00pm 16 18 mph 1018.2mb 84f
1:00pm 16 18 mph 1018.4mb 84f
12:00pm 16 20 mph 1018.6mb 83f
11:00am 18 22 mph 1018.6mb 83f
10:00am 18 22 mph 1018.6mb 83f
9:00am 22 27 mph 1017.5mb 83f
8:00am 18 22 mph 1017.6mb 83f
5:00am 18 25 mph 1016.5mb 84f
4:00am 18 20 mph 1016.9mb 84f
3:00am 20 22 mph 1017.1mb 84f
2:00am 16 20 mph 1017.9mb 84f
1:00am 16 18 mph 1018.3mb 84f
12:00am 13 18 mph 1018.5mb 84f